Latest Coastal Weather Observations for Thursday Island

IDQ60701

Issued at 7:12 pm EST Saturday 13 August 2022 (issued every 10 minutes, with the page automatically refreshed every 10 minutes)

About coastal observations | Map of coastal stations | Coastal observations for QLD | Marine services | Other Formats
Station Details ID: 200892 Name: TORRES STRAIT NTC AWS Lat: -10.59 Lon: 142.22 Height: 3.0 m
Data from the previous 72 hours. | See also: Recent months for locations in Queensland
Date/Time
EST
Wind Sea
Height
m
Swell Vis
km
Cloud Weather Temp
°C
Press
MSL
hPa
Rain since
9am
mm
Dir  Spd
kts
Gust
kts
Height
m
Period
s
Dir
13/07:00pm SSE 13 16 - - - - - - - - 1011.1 -
13/06:30pm SSE 11 14 - - - - - - - - 1010.7 -
13/06:00pm SE 12 15 - - - - - - - - 1010.4 -
13/05:30pm SSE 9 11 - - - - - - - - 1010.2 -
13/05:00pm ESE 14 18 - - - - - - - - 1010.1 -
13/04:30pm ESE 13 18 - - - - - - - - 1010.0 -
13/04:00pm ESE 16 21 - - - - - - - - 1009.8 -
13/03:30pm SE 13 16 - - - - - - - - 1010.1 -
13/03:00pm SE 12 17 - - - - - - - - 1010.4 -
13/02:30pm SSE 7 9 - - - - - - - - 1010.7 -
13/02:00pm S 7 9 - - - - - - - - 1011.3 -
13/01:30pm SE 10 13 - - - - - - - - 1011.6 -
13/01:00pm S 9 11 - - - - - - - - 1011.9 -
13/12:30pm SSE 9 12 - - - - - - - - 1012.3 -
13/12:00pm SSE 9 11 - - - - - - - - 1012.6 -
13/11:30am SSE 12 14 - - - - - - - - 1013.0 -
13/11:00am SSE 7 9 - - - - - - - - 1013.0 -
13/10:30am SSE 10 12 - - - - - - - - 1013.3 -
13/10:00am SSE 12 15 - - - - - - - - 1013.4 -
13/09:30am SSE 12 16 - - - - - - - - 1013.2 -
13/09:00am SSE 12 15 - - - - - - - - 1013.0 -
13/08:30am SSE 12 15 - - - - - - - - 1012.8 -
13/08:00am SSE 13 15 - - - - - - - - 1012.4 -
13/07:30am SSE 12 14 - - - - - - - - 1012.1 -
13/07:00am SSE 11 13 - - - - - - - - 1011.7 -
13/06:30am SSE 11 14 - - - - - - - - 1011.5 -
13/06:00am SSE 12 15 - - - - - - - - 1011.2 -
13/05:30am SSE 11 13 - - - - - - - - 1011.0 -
13/05:00am SE 10 14 - - - - - - - - 1010.8 -
13/04:30am SSE 12 16 - - - - - - - - 1010.7 -
13/04:00am SE 12 18 - - - - - - - - 1010.7 -
13/03:30am SE 12 14 - - - - - - - - 1010.8 -
13/03:00am SSE 13 17 - - - - - - - - 1011.1 -
13/02:30am SSE 14 17 - - - - - - - - 1011.3 -
13/02:00am SE 10 14 - - - - - - - - 1011.6 -
13/01:30am SE 12 16 - - - - - - - - 1011.8 -
13/01:00am SE 12 16 - - - - - - - - 1012.2 -
13/12:30am SE 12 16 - - - - - - - - 1012.4 -
13/12:00am ESE 15 23 - - - - - - - - 1012.6 -
 
Date/Time
EST
Wind Sea
Height
m
Swell Vis
km
Cloud Weather Temp
°C
Press
MSL
hPa
Rain since
9am
mm
Dir  Spd
kts
Gust
kts
Height
m
Period
s
Dir
12/11:30pm SE 15 20 - - - - - - - - 1012.5 -
12/11:00pm SE 13 19 - - - - - - - - 1012.6 -
12/10:30pm SE 13 17 - - - - - - - - 1012.7 -
12/10:00pm SE 13 15 - - - - - - - - 1012.7 -
12/09:30pm SE 15 21 - - - - - - - - 1012.8 -
12/09:00pm SSE 14 20 - - - - - - - - 1012.7 -
12/08:30pm SE 11 15 - - - - - - - - 1012.3 -
12/08:00pm SE 12 16 - - - - - - - - 1011.9 -
12/07:30pm SE 14 19 - - - - - - - - 1011.5 -
12/07:00pm ESE 12 15 - - - - - - - - 1011.0 -
12/06:30pm ESE 12 17 - - - - - - - - 1010.8 -
12/06:00pm ESE 14 20 - - - - - - - - 1010.3 -
12/05:30pm ESE 16 20 - - - - - - - - 1010.1 -
12/05:00pm ESE 17 20 - - - - - - - - 1009.8 -
12/04:30pm ESE 16 19 - - - - - - - - 1009.6 -
12/04:00pm ESE 17 22 - - - - - - - - 1009.5 -
12/03:30pm ESE 17 21 - - - - - - - - 1009.7 -
12/03:00pm ESE 18 22 - - - - - - - - 1009.8 -
12/02:30pm ESE 16 20 - - - - - - - - 1010.2 -
12/02:00pm SE 15 19 - - - - - - - - 1010.5 -
12/01:30pm ESE 17 21 - - - - - - - - 1011.0 -
12/01:00pm ESE 17 22 - - - - - - - - 1011.4 -
12/12:30pm ESE 18 22 - - - - - - - - 1011.9 -
12/12:00pm ESE 17 19 - - - - - - - - 1012.2 -
12/11:30am SE 15 19 - - - - - - - - 1012.7 -
12/11:00am SE 15 20 - - - - - - - - 1013.0 -
12/10:30am SSE 11 15 - - - - - - - - 1013.3 -
12/10:00am SSE 11 15 - - - - - - - - 1013.6 -
12/09:30am SSE 12 15 - - - - - - - - 1013.5 -
12/09:00am SE 12 15 - - - - - - - - 1013.3 -
12/08:30am SSE 15 18 - - - - - - - - 1013.0 -
12/08:00am SSE 13 16 - - - - - - - - 1012.6 -
12/07:30am SSE 12 15 - - - - - - - - 1012.5 -
12/07:00am SE 10 14 - - - - - - - - 1012.3 -
12/06:30am SE 10 12 - - - - - - - - 1012.1 -
12/06:00am SE 10 14 - - - - - - - - 1011.8 -
12/05:30am SE 8 9 - - - - - - - - 1011.5 -
12/05:00am ESE 10 14 - - - - - - - - 1011.3 -
12/04:30am ESE 13 17 - - - - - - - - 1011.2 -
12/04:00am SE 11 13 - - - - - - - - 1011.1 -
12/03:30am SE 11 14 - - - - - - - - 1011.3 -
12/03:00am SE 10 15 - - - - - - - - 1011.4 -
12/02:30am SE 10 14 - - - - - - - - 1011.6 -
12/02:00am SE 12 17 - - - - - - - - 1011.8 -
12/01:30am SE 10 13 - - - - - - - - 1012.0 -
12/01:00am SE 12 16 - - - - - - - - 1012.1 -
12/12:30am SSE 12 16 - - - - - - - - 1012.3 -
12/12:00am SE 12 16 - - - - - - - - 1012.4 -
 
Date/Time
EST
Wind Sea
Height
m
Swell Vis
km
Cloud Weather Temp
°C
Press
MSL
hPa
Rain since
9am
mm
Dir  Spd
kts
Gust
kts
Height
m
Period
s
Dir
11/11:30pm SE 14 19 - - - - - - - - 1012.6 -
11/11:00pm SE 13 17 - - - - - - - - 1012.9 -
11/10:30pm SE 15 20 - - - - - - - - 1013.2 -
11/10:00pm SE 15 19 - - - - - - - - 1013.2 -
11/09:30pm SSE 16 19 - - - - - - - - 1013.1 -
11/09:00pm SSE 14 18 - - - - - - - - 1012.7 -
11/08:30pm SE 15 20 - - - - - - - - 1012.4 -
11/08:00pm SE 18 22 - - - - - - - - 1012.2 -
11/07:30pm SE 14 18 - - - - - - - - 1011.9 -
11/07:00pm SE 16 20 - - - - - - - - 1011.7 -
11/06:30pm SSE 15 21 - - - - - - - - 1011.2 -
11/06:00pm ESE 15 19 - - - - - - - - 1010.7 -
11/05:30pm SE 19 25 - - - - - - - - 1010.4 -
11/05:00pm ESE 19 24 - - - - - - - - 1010.1 -
11/04:30pm SE 18 23 - - - - - - - - 1009.9 -
11/04:00pm SE 19 25 - - - - - - - - 1009.8 -
11/03:30pm ESE 21 29 - - - - - - - - 1009.8 -
11/03:00pm ESE 23 29 - - - - - - - - 1009.5 -
11/02:30pm ESE 22 30 - - - - - - - - 1009.9 -
11/02:00pm ESE 22 28 - - - - - - - - 1010.1 -
11/01:30pm ESE 23 31 - - - - - - - - 1010.2 -
11/01:00pm ESE 23 29 - - - - - - - - 1010.5 -
11/12:30pm ESE 19 25 - - - - - - - - 1010.9 -
11/12:00pm ESE 20 26 - - - - - - - - 1011.2 -
11/11:30am SE 20 26 - - - - - - - - 1011.8 -
11/11:00am ESE 20 25 - - - - - - - - 1012.2 -
11/10:30am SE 18 24 - - - - - - - - 1012.9 -
11/10:00am SE 14 19 - - - - - - - - 1013.1 -
11/09:30am SSE 13 17 - - - - - - - - 1013.3 -
11/09:00am SSE 12 15 - - - - - - - - 1013.4 -
11/08:30am SSE 12 17 - - - - - - - - 1013.1 -
11/08:00am SE 11 13 - - - - - - - - 1012.8 -
11/07:30am SSE 12 15 - - - - - - - - 1012.6 -
11/07:00am SSE 14 18 - - - - - - - - 1012.3 -
11/06:30am SSE 15 19 - - - - - - - - 1011.8 -
11/06:00am SSE 18 20 - - - - - - - - 1011.6 -
11/05:30am SSE 16 22 - - - - - - - - 1011.5 -
11/05:00am SSE 16 20 - - - - - - - - 1011.4 -
11/04:30am SE 14 18 - - - - - - - - 1011.4 -
11/04:00am SE 15 19 - - - - - - - - 1011.4 -
11/03:30am SE 15 19 - - - - - - - - 1011.5 -
11/03:00am SE 14 18 - - - - - - - - 1011.6 -
11/02:30am ESE 17 22 - - - - - - - - 1011.8 -
11/02:00am SE 15 19 - - - - - - - - 1011.9 -
11/01:30am SE 16 22 - - - - - - - - 1012.1 -
11/01:00am SE 15 20 - - - - - - - - 1012.2 -
11/12:30am SE 16 20 - - - - - - - - 1012.6 -
11/12:00am SE 16 20 - - - - - - - - 1012.9 -
 
Date/Time
EST
Wind Sea
Height
m
Swell Vis
km
Cloud Weather Temp
°C
Press
MSL
hPa
Rain since
9am
mm
Dir  Spd
kts
Gust
kts
Height
m
Period
s
Dir
10/11:30pm SE 15 21 - - - - - - - - 1013.2 -
10/11:00pm SE 13 17 - - - - - - - - 1013.2 -
10/10:30pm SE 14 18 - - - - - - - - 1013.3 -
10/10:00pm SE 15 19 - - - - - - - - 1013.3 -
10/09:30pm SE 17 25 - - - - - - - - 1013.3 -
10/09:22pm SE 15 25 - - - - - - - - 1013.3 -
10/09:00pm SE 14 18 - - - - - - - - 1013.1 -
10/08:30pm SE 16 22 - - - - - - - - 1012.9 -
10/08:00pm SE 17 24 - - - - - - - - 1012.6 -
10/07:30pm SE 17 23 - - - - - - - - 1012.1 -

Other formats

Comma delimited format used in spreadsheet applications
http://www.bom.gov.au/fwo/IDQ60701/IDQ60701.94181.axf

JavaScript Object Notation format (JSON) in row-major order
http://www.bom.gov.au/fwo/IDQ60701/IDQ60701.94181.json

Data quality

Most of these data are generated automatically and are frequently updated. Quality checks on data are not normally performed. It is possible for incorrect values to appear. Refer to information at About Latest Weather Observations and please check the disclaimer before using these data.